Destinations Zadar Airport

Zadar Airport (LDZD / ZAD)

Flights to Zadar Airport

Flight number From ETE Dispatch
SPY-2496 EGPH Edinburgh Airport 03:00

Flights from Zadar Airport

Flight number To ETE Dispatch
SPY-2497 EGPH Edinburgh Airport 03:00
About

Zadar Airport facts

Zadar Airport is located in Zadar at an elevation of 88.1 meters or 289 feet.

Currently, Speedy Airlines serves 2 flights to and from Zadar Airport.

Detailed airport info

Route map

Weather

Current weather

METAR

METAR

Metar data retrieved Sunday, 21 July 2024 at 20:25 UTC

LDZD 212000Z 31003KT 280V340 CAVOK 24/17 Q1010 NOSIG
Wind Temperature
3 kt 24c